Estación de Huelquen

Ultimos registro cada 15 minutos 63
Estación Fecha / Hora Temperatura Humedad Lluvia Velocidad Dirección Radiación Presion
63 Huelquen 06-05-2026 15:30 14,7 90 0,4 0 294 40 1018,2
62 Huelquen 06-05-2026 15:15 14,4 90 0,4 0 295 47 1018,1
61 Huelquen 06-05-2026 15:00 14,3 90 0 0 295 9 1018,4
60 Huelquen 06-05-2026 14:45 14,3 90 0 0 17 26 1018,3
59 Huelquen 06-05-2026 14:30 14,5 90 0 0 9 37 1018,3
58 Huelquen 06-05-2026 14:15 14,2 90 0 0 55 120 1018,4
57 Huelquen 06-05-2026 14:00 13,9 89 0,2 0 169 88 1018,3
56 Huelquen 06-05-2026 13:45 13,8 89 1 0 240 37 1018,1
55 Huelquen 06-05-2026 13:30 13,7 88 0,2 0 240 42 1017,9
54 Huelquen 06-05-2026 13:15 13,8 88 1,8 0 129 16 1017,6
53 Huelquen 06-05-2026 13:00 13,6 87 1,6 0 72 49 1017,7
52 Huelquen 06-05-2026 12:45 13,6 86 3 0 72 63 1017,5
51 Huelquen 06-05-2026 12:30 13,8 85 1 0 11 11 1017,8
50 Huelquen 06-05-2026 12:15 13,9 84 1,6 0 327 86 1017,5
49 Huelquen 06-05-2026 12:00 14,2 83 0 0 267 16 1017
48 Huelquen 06-05-2026 11:45 14,6 81 1,2 0 246 33 1016,6
47 Huelquen 06-05-2026 11:30 15 78 0,4 0 247 18 1016,9
46 Huelquen 06-05-2026 11:15 15,4 74 0 0 19 28 1016,4
45 Huelquen 06-05-2026 11:00 16 71 0 1,8 356 23 1016,9
44 Huelquen 06-05-2026 10:45 16,7 69 0 0 264 46 1016,7
43 Huelquen 06-05-2026 10:30 16,7 69 0 0 285 197 1015,3
42 Huelquen 06-05-2026 10:15 16,4 73 0 0 169 174 1015,3
41 Huelquen 06-05-2026 10:00 15,9 75 0 0 180 153 1016,1
40 Huelquen 06-05-2026 09:45 15,4 81 0 0 236 185 1016,6
39 Huelquen 06-05-2026 09:30 13,8 89 0 0 98 438 1016,6
38 Huelquen 06-05-2026 09:15 12,3 91 0 0 113 267 1016,7
37 Huelquen 06-05-2026 09:00 11,5 92 0 0 180 214 1016,7
36 Huelquen 06-05-2026 08:45 10,5 94 0 0 263 176 1016,6
35 Huelquen 06-05-2026 08:30 8,8 93 0 0 257 91 1016,5
34 Huelquen 06-05-2026 08:15 7,7 90 0 0 274 79 1016,3
33 Huelquen 06-05-2026 08:00 7,1 88 0 0 269 18 1016,1
32 Huelquen 06-05-2026 07:45 7,1 88 0 0 269 9 1016,2
31 Huelquen 06-05-2026 07:30 7,3 87 0 0 269 5 1016
30 Huelquen 06-05-2026 07:15 7,5 88 0 0 269 0 1015,5
29 Huelquen 06-05-2026 07:00 7,6 87 0 0 269 0 1015,4
28 Huelquen 06-05-2026 06:45 7,8 88 0 0 269 0 1015,4
27 Huelquen 06-05-2026 06:30 8,2 88 0 0 271 0 1015,1
26 Huelquen 06-05-2026 06:15 8,4 88 0 0 271 0 1015,1
25 Huelquen 06-05-2026 06:00 8,6 88 0 0 272 0 1015,2
24 Huelquen 06-05-2026 05:45 8,4 88 0 0 276 0 1014,9
23 Huelquen 06-05-2026 05:30 8,2 88 0 0 245 0 1014,7
22 Huelquen 06-05-2026 05:15 7,7 87 0 0 245 0 1014,5
21 Huelquen 06-05-2026 05:00 7,4 86 0 0 245 0 1014,3
20 Huelquen 06-05-2026 04:45 7,6 87 0 0 245 0 1013,8
19 Huelquen 06-05-2026 04:30 7,4 86 0 0 245 0 1013,7
18 Huelquen 06-05-2026 04:15 7,8 86 0 0 283 0 1013,9
17 Huelquen 06-05-2026 04:00 8 86 0 0 283 0 1014,4
16 Huelquen 06-05-2026 03:45 7,9 85 0 0 283 0 1014,4
15 Huelquen 06-05-2026 03:30 8,2 84 0 0 283 0 1013,9
14 Huelquen 06-05-2026 03:15 8,8 84 0 0 283 0 1013,8
13 Huelquen 06-05-2026 03:00 9,4 85 0 0 283 0 1013,7
12 Huelquen 06-05-2026 02:45 10 84 0 0 283 0 1013,8
11 Huelquen 06-05-2026 02:30 10,5 85 0 0 283 0 1014,1
10 Huelquen 06-05-2026 02:15 10,6 86 0 0 283 0 1014,4
9 Huelquen 06-05-2026 02:00 10,8 85 0 0 283 0 1014,3
8 Huelquen 06-05-2026 01:45 10,5 86 0 0 269 0 1014,2
7 Huelquen 06-05-2026 01:30 10,6 85 0 0 269 0 1014,5
6 Huelquen 06-05-2026 01:15 10,6 85 0 0 269 0 1014,7
5 Huelquen 06-05-2026 01:00 10,7 85 0 0 269 0 1014,7
4 Huelquen 06-05-2026 00:45 10,8 84 0 0 269 0 1014,7
3 Huelquen 06-05-2026 00:30 11 84 0 0 269 0 1014,8
2 Huelquen 06-05-2026 00:15 11,2 84 0 0 269 0 1014,9
1 Huelquen 06-05-2026 00:00 11,2 84 0 0 269 0 1014,8